sensor_id;sensor_type;location;lat;lon;timestamp;temperature;humidity
31038;DHT22;17702;47.590;7.666;2023-04-06T00:02:19;4.00;97.40
31038;DHT22;17702;47.590;7.666;2023-04-06T00:04:45;4.20;96.90
31038;DHT22;17702;47.590;7.666;2023-04-06T00:07:10;4.10;98.00
31038;DHT22;17702;47.590;7.666;2023-04-06T00:09:36;4.20;97.10
31038;DHT22;17702;47.590;7.666;2023-04-06T00:12:01;4.20;96.70
31038;DHT22;17702;47.590;7.666;2023-04-06T00:14:27;4.20;97.60
31038;DHT22;17702;47.590;7.666;2023-04-06T00:16:53;4.10;97.80
31038;DHT22;17702;47.590;7.666;2023-04-06T00:19:18;4.00;98.10
31038;DHT22;17702;47.590;7.666;2023-04-06T00:21:44;4.00;97.70
31038;DHT22;17702;47.590;7.666;2023-04-06T00:24:09;4.00;97.50
31038;DHT22;17702;47.590;7.666;2023-04-06T00:26:35;4.00;96.90
31038;DHT22;17702;47.590;7.666;2023-04-06T00:29:00;4.00;96.90
31038;DHT22;17702;47.590;7.666;2023-04-06T00:31:26;3.90;97.60
31038;DHT22;17702;47.590;7.666;2023-04-06T00:33:51;4.00;97.30
31038;DHT22;17702;47.590;7.666;2023-04-06T00:36:17;4.00;96.10
31038;DHT22;17702;47.590;7.666;2023-04-06T00:38:42;4.00;96.80
31038;DHT22;17702;47.590;7.666;2023-04-06T00:41:08;4.00;97.00
31038;DHT22;17702;47.590;7.666;2023-04-06T00:43:33;3.90;96.70
31038;DHT22;17702;47.590;7.666;2023-04-06T00:45:59;3.90;97.10
31038;DHT22;17702;47.590;7.666;2023-04-06T00:48:24;3.90;96.70
31038;DHT22;17702;47.590;7.666;2023-04-06T00:50:50;3.90;96.30
31038;DHT22;17702;47.590;7.666;2023-04-06T00:53:16;3.90;96.40
31038;DHT22;17702;47.590;7.666;2023-04-06T00:55:41;3.90;96.40
31038;DHT22;17702;47.590;7.666;2023-04-06T00:58:06;3.90;96.20
31038;DHT22;17702;47.590;7.666;2023-04-06T01:00:32;3.90;96.60
31038;DHT22;17702;47.590;7.666;2023-04-06T01:02:58;3.90;96.70
31038;DHT22;17702;47.590;7.666;2023-04-06T01:05:24;3.90;95.80
31038;DHT22;17702;47.590;7.666;2023-04-06T01:07:49;4.00;95.60
31038;DHT22;17702;47.590;7.666;2023-04-06T01:10:28;4.10;95.80
31038;DHT22;17702;47.590;7.666;2023-04-06T01:12:53;4.10;95.50
31038;DHT22;17702;47.590;7.666;2023-04-06T01:15:19;4.00;94.80
31038;DHT22;17702;47.590;7.666;2023-04-06T01:17:45;4.00;95.60
31038;DHT22;17702;47.590;7.666;2023-04-06T01:20:11;3.80;95.40
31038;DHT22;17702;47.590;7.666;2023-04-06T01:22:37;3.60;96.30
31038;DHT22;17702;47.590;7.666;2023-04-06T01:25:02;3.50;96.70
31038;DHT22;17702;47.590;7.666;2023-04-06T01:27:28;3.40;97.10
31038;DHT22;17702;47.590;7.666;2023-04-06T01:29:55;3.40;97.50
31038;DHT22;17702;47.590;7.666;2023-04-06T01:32:20;3.30;96.60
31038;DHT22;17702;47.590;7.666;2023-04-06T01:34:46;3.20;97.10
31038;DHT22;17702;47.590;7.666;2023-04-06T01:37:11;3.30;97.20
31038;DHT22;17702;47.590;7.666;2023-04-06T01:39:37;3.40;97.50
31038;DHT22;17702;47.590;7.666;2023-04-06T01:42:03;3.50;96.40
31038;DHT22;17702;47.590;7.666;2023-04-06T01:44:28;3.60;95.90
31038;DHT22;17702;47.590;7.666;2023-04-06T01:46:55;3.50;97.00
31038;DHT22;17702;47.590;7.666;2023-04-06T01:49:21;3.40;96.30
31038;DHT22;17702;47.590;7.666;2023-04-06T01:51:47;3.30;96.60
31038;DHT22;17702;47.590;7.666;2023-04-06T01:54:12;3.20;96.30
31038;DHT22;17702;47.590;7.666;2023-04-06T01:56:38;3.20;96.30
31038;DHT22;17702;47.590;7.666;2023-04-06T01:59:03;3.10;97.00
31038;DHT22;17702;47.590;7.666;2023-04-06T02:01:29;3.20;97.20
31038;DHT22;17702;47.590;7.666;2023-04-06T02:03:55;3.20;97.10
31038;DHT22;17702;47.590;7.666;2023-04-06T02:06:20;3.30;97.70
31038;DHT22;17702;47.590;7.666;2023-04-06T02:08:46;3.20;98.00
31038;DHT22;17702;47.590;7.666;2023-04-06T02:11:11;3.20;98.10
31038;DHT22;17702;47.590;7.666;2023-04-06T02:13:37;3.20;97.50
31038;DHT22;17702;47.590;7.666;2023-04-06T02:16:03;3.30;97.60
31038;DHT22;17702;47.590;7.666;2023-04-06T02:18:30;3.20;98.10
31038;DHT22;17702;47.590;7.666;2023-04-06T02:20:55;3.30;97.80
31038;DHT22;17702;47.590;7.666;2023-04-06T02:23:21;3.30;97.70
31038;DHT22;17702;47.590;7.666;2023-04-06T02:25:47;3.20;97.40
31038;DHT22;17702;47.590;7.666;2023-04-06T02:28:12;3.10;98.40
31038;DHT22;17702;47.590;7.666;2023-04-06T02:30:38;2.90;98.70
31038;DHT22;17702;47.590;7.666;2023-04-06T02:33:03;2.80;99.40
31038;DHT22;17702;47.590;7.666;2023-04-06T02:35:29;2.90;99.00
31038;DHT22;17702;47.590;7.666;2023-04-06T02:37:55;2.90;98.80
31038;DHT22;17702;47.590;7.666;2023-04-06T02:40:21;2.90;98.60
31038;DHT22;17702;47.590;7.666;2023-04-06T02:42:46;2.90;98.70
31038;DHT22;17702;47.590;7.666;2023-04-06T02:45:12;2.90;97.50
31038;DHT22;17702;47.590;7.666;2023-04-06T02:47:37;3.00;97.40
31038;DHT22;17702;47.590;7.666;2023-04-06T02:50:03;2.90;98.20
31038;DHT22;17702;47.590;7.666;2023-04-06T02:52:28;2.90;98.00
31038;DHT22;17702;47.590;7.666;2023-04-06T02:54:54;2.90;97.90
31038;DHT22;17702;47.590;7.666;2023-04-06T02:57:19;3.00;98.20
31038;DHT22;17702;47.590;7.666;2023-04-06T02:59:45;2.90;98.10
31038;DHT22;17702;47.590;7.666;2023-04-06T03:02:10;2.90;98.40
31038;DHT22;17702;47.590;7.666;2023-04-06T03:04:36;2.80;98.00
31038;DHT22;17702;47.590;7.666;2023-04-06T03:07:01;2.80;98.30
31038;DHT22;17702;47.590;7.666;2023-04-06T03:09:27;2.90;98.10
31038;DHT22;17702;47.590;7.666;2023-04-06T03:11:53;2.80;98.30
31038;DHT22;17702;47.590;7.666;2023-04-06T03:14:18;2.80;98.60
31038;DHT22;17702;47.590;7.666;2023-04-06T03:16:47;2.80;98.70
31038;DHT22;17702;47.590;7.666;2023-04-06T03:19:13;2.90;98.70
31038;DHT22;17702;47.590;7.666;2023-04-06T03:21:39;2.80;98.60
31038;DHT22;17702;47.590;7.666;2023-04-06T03:24:05;2.80;97.60
31038;DHT22;17702;47.590;7.666;2023-04-06T03:26:30;2.80;98.40
31038;DHT22;17702;47.590;7.666;2023-04-06T03:28:56;2.70;98.80
31038;DHT22;17702;47.590;7.666;2023-04-06T03:31:21;2.70;98.60
31038;DHT22;17702;47.590;7.666;2023-04-06T03:33:47;2.70;98.80
31038;DHT22;17702;47.590;7.666;2023-04-06T03:36:12;2.70;98.70
31038;DHT22;17702;47.590;7.666;2023-04-06T03:38:38;2.70;98.30
31038;DHT22;17702;47.590;7.666;2023-04-06T03:41:03;2.70;97.80
31038;DHT22;17702;47.590;7.666;2023-04-06T03:43:29;2.70;98.00
31038;DHT22;17702;47.590;7.666;2023-04-06T03:45:54;2.80;97.70
31038;DHT22;17702;47.590;7.666;2023-04-06T03:48:20;2.80;97.00
31038;DHT22;17702;47.590;7.666;2023-04-06T03:50:45;2.80;96.60
31038;DHT22;17702;47.590;7.666;2023-04-06T03:53:11;2.80;97.20
31038;DHT22;17702;47.590;7.666;2023-04-06T03:55:36;2.80;97.20
31038;DHT22;17702;47.590;7.666;2023-04-06T03:58:02;2.60;97.90
31038;DHT22;17702;47.590;7.666;2023-04-06T04:00:27;2.60;97.40
31038;DHT22;17702;47.590;7.666;2023-04-06T04:02:53;2.60;98.30
31038;DHT22;17702;47.590;7.666;2023-04-06T04:05:18;2.60;97.80
31038;DHT22;17702;47.590;7.666;2023-04-06T04:07:44;2.50;98.10
31038;DHT22;17702;47.590;7.666;2023-04-06T04:10:10;2.60;98.70
31038;DHT22;17702;47.590;7.666;2023-04-06T04:12:35;2.70;98.00
31038;DHT22;17702;47.590;7.666;2023-04-06T04:15:01;2.80;97.50
31038;DHT22;17702;47.590;7.666;2023-04-06T04:17:28;2.80;97.60
31038;DHT22;17702;47.590;7.666;2023-04-06T04:19:53;2.80;97.00
31038;DHT22;17702;47.590;7.666;2023-04-06T04:22:19;2.90;97.50
31038;DHT22;17702;47.590;7.666;2023-04-06T04:24:44;2.90;96.80
31038;DHT22;17702;47.590;7.666;2023-04-06T04:27:10;2.70;97.60
31038;DHT22;17702;47.590;7.666;2023-04-06T04:29:35;2.80;97.30
31038;DHT22;17702;47.590;7.666;2023-04-06T04:32:01;2.80;97.00
31038;DHT22;17702;47.590;7.666;2023-04-06T04:34:26;2.70;97.80
31038;DHT22;17702;47.590;7.666;2023-04-06T04:36:53;2.60;97.40
31038;DHT22;17702;47.590;7.666;2023-04-06T04:39:18;2.60;97.60
31038;DHT22;17702;47.590;7.666;2023-04-06T04:41:44;2.70;97.70
31038;DHT22;17702;47.590;7.666;2023-04-06T04:44:09;2.70;96.70
31038;DHT22;17702;47.590;7.666;2023-04-06T04:46:35;2.70;96.90
31038;DHT22;17702;47.590;7.666;2023-04-06T04:49:00;2.80;96.90
31038;DHT22;17702;47.590;7.666;2023-04-06T04:51:26;2.80;96.90
31038;DHT22;17702;47.590;7.666;2023-04-06T04:53:51;2.80;97.00
31038;DHT22;17702;47.590;7.666;2023-04-06T04:56:17;2.80;96.70
31038;DHT22;17702;47.590;7.666;2023-04-06T04:58:42;2.80;97.40
31038;DHT22;17702;47.590;7.666;2023-04-06T05:01:08;2.70;96.90
31038;DHT22;17702;47.590;7.666;2023-04-06T05:03:33;2.60;97.50
31038;DHT22;17702;47.590;7.666;2023-04-06T05:05:59;2.50;98.20
31038;DHT22;17702;47.590;7.666;2023-04-06T05:08:24;2.50;98.20
31038;DHT22;17702;47.590;7.666;2023-04-06T05:10:50;2.40;98.40
31038;DHT22;17702;47.590;7.666;2023-04-06T05:13:15;2.50;98.20
31038;DHT22;17702;47.590;7.666;2023-04-06T05:15:41;2.50;98.30
31038;DHT22;17702;47.590;7.666;2023-04-06T05:18:07;2.40;98.60
31038;DHT22;17702;47.590;7.666;2023-04-06T05:20:33;2.40;98.50
31038;DHT22;17702;47.590;7.666;2023-04-06T05:22:59;2.40;98.60
31038;DHT22;17702;47.590;7.666;2023-04-06T05:25:24;2.50;98.40
31038;DHT22;17702;47.590;7.666;2023-04-06T05:27:50;2.60;97.80
31038;DHT22;17702;47.590;7.666;2023-04-06T05:30:16;2.70;98.10
31038;DHT22;17702;47.590;7.666;2023-04-06T05:32:41;2.70;98.30
31038;DHT22;17702;47.590;7.666;2023-04-06T05:35:08;2.70;97.50
31038;DHT22;17702;47.590;7.666;2023-04-06T05:37:34;2.80;96.60
31038;DHT22;17702;47.590;7.666;2023-04-06T05:39:59;2.80;96.80
31038;DHT22;17702;47.590;7.666;2023-04-06T05:42:25;2.70;97.10
31038;DHT22;17702;47.590;7.666;2023-04-06T05:44:52;2.70;97.20
31038;DHT22;17702;47.590;7.666;2023-04-06T05:47:17;2.80;97.40
31038;DHT22;17702;47.590;7.666;2023-04-06T05:49:43;2.90;97.30
31038;DHT22;17702;47.590;7.666;2023-04-06T05:52:09;2.90;97.20
31038;DHT22;17702;47.590;7.666;2023-04-06T05:54:36;3.00;97.40
31038;DHT22;17702;47.590;7.666;2023-04-06T05:57:02;3.10;97.10
31038;DHT22;17702;47.590;7.666;2023-04-06T05:59:27;3.10;97.00
31038;DHT22;17702;47.590;7.666;2023-04-06T06:01:53;3.10;96.70
31038;DHT22;17702;47.590;7.666;2023-04-06T06:04:19;3.10;97.00
31038;DHT22;17702;47.590;7.666;2023-04-06T06:06:44;3.10;96.20
31038;DHT22;17702;47.590;7.666;2023-04-06T06:09:10;3.10;96.50
31038;DHT22;17702;47.590;7.666;2023-04-06T06:11:35;3.10;96.50
31038;DHT22;17702;47.590;7.666;2023-04-06T06:14:02;3.20;96.30
31038;DHT22;17702;47.590;7.666;2023-04-06T06:16:28;3.40;96.40
31038;DHT22;17702;47.590;7.666;2023-04-06T06:18:53;3.40;97.00
31038;DHT22;17702;47.590;7.666;2023-04-06T06:21:19;3.50;96.70
31038;DHT22;17702;47.590;7.666;2023-04-06T06:23:44;3.50;96.10
31038;DHT22;17702;47.590;7.666;2023-04-06T06:26:10;3.50;96.60
31038;DHT22;17702;47.590;7.666;2023-04-06T06:28:36;5.30;99.90
31038;DHT22;17702;47.590;7.666;2023-04-06T06:31:01;9.30;97.80
31038;DHT22;17702;47.590;7.666;2023-04-06T06:33:27;12.00;79.50
31038;DHT22;17702;47.590;7.666;2023-04-06T06:35:53;13.80;61.20
31038;DHT22;17702;47.590;7.666;2023-04-06T06:38:18;14.10;47.00
31038;DHT22;17702;47.590;7.666;2023-04-06T06:40:44;12.00;50.70
31038;DHT22;17702;47.590;7.666;2023-04-06T06:43:10;10.10;55.40
31038;DHT22;17702;47.590;7.666;2023-04-06T06:45:35;8.70;60.30
31038;DHT22;17702;47.590;7.666;2023-04-06T06:48:01;7.70;62.60
31038;DHT22;17702;47.590;7.666;2023-04-06T06:50:27;7.20;67.10
31038;DHT22;17702;47.590;7.666;2023-04-06T06:52:52;6.80;69.00
31038;DHT22;17702;47.590;7.666;2023-04-06T06:55:18;6.50;70.40
31038;DHT22;17702;47.590;7.666;2023-04-06T06:57:44;6.40;69.60
31038;DHT22;17702;47.590;7.666;2023-04-06T07:00:11;6.40;71.50
31038;DHT22;17702;47.590;7.666;2023-04-06T07:02:38;6.50;71.80
31038;DHT22;17702;47.590;7.666;2023-04-06T07:05:04;6.60;72.60
31038;DHT22;17702;47.590;7.666;2023-04-06T07:07:31;6.60;74.80
31038;DHT22;17702;47.590;7.666;2023-04-06T07:09:57;6.70;73.50
31038;DHT22;17702;47.590;7.666;2023-04-06T07:12:22;6.80;76.20
31038;DHT22;17702;47.590;7.666;2023-04-06T07:14:48;7.00;74.60
31038;DHT22;17702;47.590;7.666;2023-04-06T07:17:13;7.10;74.10
31038;DHT22;17702;47.590;7.666;2023-04-06T07:19:39;7.20;73.90
31038;DHT22;17702;47.590;7.666;2023-04-06T07:22:05;7.40;73.70
31038;DHT22;17702;47.590;7.666;2023-04-06T07:24:31;7.60;71.40
31038;DHT22;17702;47.590;7.666;2023-04-06T07:26:58;7.80;70.40
31038;DHT22;17702;47.590;7.666;2023-04-06T07:29:23;8.00;70.00
31038;DHT22;17702;47.590;7.666;2023-04-06T07:31:48;8.20;69.60
31038;DHT22;17702;47.590;7.666;2023-04-06T07:34:14;8.40;68.40
31038;DHT22;17702;47.590;7.666;2023-04-06T07:36:40;8.60;67.40
31038;DHT22;17702;47.590;7.666;2023-04-06T07:39:06;8.80;65.10
31038;DHT22;17702;47.590;7.666;2023-04-06T07:41:32;9.00;64.60
31038;DHT22;17702;47.590;7.666;2023-04-06T07:43:57;9.10;62.50
31038;DHT22;17702;47.590;7.666;2023-04-06T07:46:23;9.30;62.00
31038;DHT22;17702;47.590;7.666;2023-04-06T07:48:48;9.40;62.90
31038;DHT22;17702;47.590;7.666;2023-04-06T07:51:15;9.60;63.00
31038;DHT22;17702;47.590;7.666;2023-04-06T07:53:43;9.70;58.70
31038;DHT22;17702;47.590;7.666;2023-04-06T07:56:09;9.90;60.40
31038;DHT22;17702;47.590;7.666;2023-04-06T07:58:35;10.10;58.30
31038;DHT22;17702;47.590;7.666;2023-04-06T08:01:01;10.30;56.00
31038;DHT22;17702;47.590;7.666;2023-04-06T08:03:26;10.40;55.40
31038;DHT22;17702;47.590;7.666;2023-04-06T08:05:52;10.60;56.20
31038;DHT22;17702;47.590;7.666;2023-04-06T08:08:18;10.80;58.10
31038;DHT22;17702;47.590;7.666;2023-04-06T08:10:44;11.10;57.70
31038;DHT22;17702;47.590;7.666;2023-04-06T08:13:10;11.40;58.30
31038;DHT22;17702;47.590;7.666;2023-04-06T08:15:35;11.50;56.70
31038;DHT22;17702;47.590;7.666;2023-04-06T08:18:01;11.70;54.30
31038;DHT22;17702;47.590;7.666;2023-04-06T08:20:26;11.90;52.30
31038;DHT22;17702;47.590;7.666;2023-04-06T08:22:52;12.00;53.40
31038;DHT22;17702;47.590;7.666;2023-04-06T08:25:17;12.10;51.40
31038;DHT22;17702;47.590;7.666;2023-04-06T08:27:43;12.20;52.50
31038;DHT22;17702;47.590;7.666;2023-04-06T08:30:08;12.40;51.60
31038;DHT22;17702;47.590;7.666;2023-04-06T08:32:34;12.60;50.50
31038;DHT22;17702;47.590;7.666;2023-04-06T08:35:00;12.80;49.60
31038;DHT22;17702;47.590;7.666;2023-04-06T08:37:25;12.90;47.30
31038;DHT22;17702;47.590;7.666;2023-04-06T08:39:51;13.20;46.20
31038;DHT22;17702;47.590;7.666;2023-04-06T08:42:19;13.30;46.10
31038;DHT22;17702;47.590;7.666;2023-04-06T08:44:44;13.40;44.20
31038;DHT22;17702;47.590;7.666;2023-04-06T08:47:11;13.40;46.00
31038;DHT22;17702;47.590;7.666;2023-04-06T08:49:37;13.60;45.50
31038;DHT22;17702;47.590;7.666;2023-04-06T08:52:05;13.60;44.90
31038;DHT22;17702;47.590;7.666;2023-04-06T08:54:31;13.70;45.00
31038;DHT22;17702;47.590;7.666;2023-04-06T08:56:56;13.70;43.30
31038;DHT22;17702;47.590;7.666;2023-04-06T08:59:23;13.80;44.50
31038;DHT22;17702;47.590;7.666;2023-04-06T09:01:50;13.90;44.80
31038;DHT22;17702;47.590;7.666;2023-04-06T09:04:16;14.10;43.70
31038;DHT22;17702;47.590;7.666;2023-04-06T09:06:42;14.20;41.30
31038;DHT22;17702;47.590;7.666;2023-04-06T09:09:08;14.20;42.20
31038;DHT22;17702;47.590;7.666;2023-04-06T09:14:08;14.40;42.50
31038;DHT22;17702;47.590;7.666;2023-04-06T09:16:38;14.30;42.30
31038;DHT22;17702;47.590;7.666;2023-04-06T09:19:04;14.50;44.80
31038;DHT22;17702;47.590;7.666;2023-04-06T09:21:30;14.50;42.20
31038;DHT22;17702;47.590;7.666;2023-04-06T09:23:59;14.60;42.80
31038;DHT22;17702;47.590;7.666;2023-04-06T09:26:25;14.70;42.90
31038;DHT22;17702;47.590;7.666;2023-04-06T09:28:56;14.70;41.00
31038;DHT22;17702;47.590;7.666;2023-04-06T09:31:22;14.90;41.70
31038;DHT22;17702;47.590;7.666;2023-04-06T09:33:48;15.00;40.10
31038;DHT22;17702;47.590;7.666;2023-04-06T09:36:14;15.10;40.80
31038;DHT22;17702;47.590;7.666;2023-04-06T09:38:57;15.20;41.70
31038;DHT22;17702;47.590;7.666;2023-04-06T09:43:49;15.20;39.80
31038;DHT22;17702;47.590;7.666;2023-04-06T09:46:15;15.20;40.50
31038;DHT22;17702;47.590;7.666;2023-04-06T09:48:43;15.20;39.10
31038;DHT22;17702;47.590;7.666;2023-04-06T09:51:09;15.30;40.60
31038;DHT22;17702;47.590;7.666;2023-04-06T09:53:35;15.40;40.50
31038;DHT22;17702;47.590;7.666;2023-04-06T09:56:04;15.50;38.20
31038;DHT22;17702;47.590;7.666;2023-04-06T09:58:34;15.40;36.30
31038;DHT22;17702;47.590;7.666;2023-04-06T10:01:10;15.60;38.00
31038;DHT22;17702;47.590;7.666;2023-04-06T10:06:04;16.10;39.60
31038;DHT22;17702;47.590;7.666;2023-04-06T10:08:30;16.20;34.90
31038;DHT22;17702;47.590;7.666;2023-04-06T10:10:58;16.20;36.50
31038;DHT22;17702;47.590;7.666;2023-04-06T10:13:24;16.30;37.80
31038;DHT22;17702;47.590;7.666;2023-04-06T10:15:50;16.40;37.70
31038;DHT22;17702;47.590;7.666;2023-04-06T10:18:16;16.50;35.20
31038;DHT22;17702;47.590;7.666;2023-04-06T10:20:43;16.40;37.80
31038;DHT22;17702;47.590;7.666;2023-04-06T10:23:55;16.60;37.60
31038;DHT22;17702;47.590;7.666;2023-04-06T10:26:01;16.70;38.00
31038;DHT22;17702;47.590;7.666;2023-04-06T10:28:30;16.80;37.30
31038;DHT22;17702;47.590;7.666;2023-04-06T10:30:57;16.90;37.40
31038;DHT22;17702;47.590;7.666;2023-04-06T10:33:23;16.90;35.90
31038;DHT22;17702;47.590;7.666;2023-04-06T10:35:49;16.90;37.50
31038;DHT22;17702;47.590;7.666;2023-04-06T10:38:14;17.00;37.10
31038;DHT22;17702;47.590;7.666;2023-04-06T10:40:41;17.10;36.80
31038;DHT22;17702;47.590;7.666;2023-04-06T10:43:12;17.30;37.40
31038;DHT22;17702;47.590;7.666;2023-04-06T10:45:38;17.40;37.50
31038;DHT22;17702;47.590;7.666;2023-04-06T10:48:16;17.50;36.90
31038;DHT22;17702;47.590;7.666;2023-04-06T10:50:47;17.60;36.50
31038;DHT22;17702;47.590;7.666;2023-04-06T10:53:20;17.60;35.80
31038;DHT22;17702;47.590;7.666;2023-04-06T10:55:45;17.50;35.00
31038;DHT22;17702;47.590;7.666;2023-04-06T10:58:12;17.30;34.70
31038;DHT22;17702;47.590;7.666;2023-04-06T11:00:43;17.10;37.20
31038;DHT22;17702;47.590;7.666;2023-04-06T11:03:09;17.00;35.00
31038;DHT22;17702;47.590;7.666;2023-04-06T11:05:35;16.80;35.50
31038;DHT22;17702;47.590;7.666;2023-04-06T11:08:00;16.90;37.10
31038;DHT22;17702;47.590;7.666;2023-04-06T11:10:26;17.10;37.60
31038;DHT22;17702;47.590;7.666;2023-04-06T11:12:54;17.30;37.60
31038;DHT22;17702;47.590;7.666;2023-04-06T11:15:20;17.40;36.70
31038;DHT22;17702;47.590;7.666;2023-04-06T11:17:45;17.60;37.00
31038;DHT22;17702;47.590;7.666;2023-04-06T11:20:11;17.70;36.10
31038;DHT22;17702;47.590;7.666;2023-04-06T11:22:47;17.70;36.00
31038;DHT22;17702;47.590;7.666;2023-04-06T11:25:13;17.70;38.40
31038;DHT22;17702;47.590;7.666;2023-04-06T11:27:39;17.80;37.70
31038;DHT22;17702;47.590;7.666;2023-04-06T11:30:05;17.80;36.30
31038;DHT22;17702;47.590;7.666;2023-04-06T11:32:38;17.80;36.50
31038;DHT22;17702;47.590;7.666;2023-04-06T11:35:04;17.70;35.90
31038;DHT22;17702;47.590;7.666;2023-04-06T11:37:30;17.70;35.70
31038;DHT22;17702;47.590;7.666;2023-04-06T11:39:58;17.60;35.50
31038;DHT22;17702;47.590;7.666;2023-04-06T11:42:27;17.60;36.20
31038;DHT22;17702;47.590;7.666;2023-04-06T11:44:53;17.50;36.80
31038;DHT22;17702;47.590;7.666;2023-04-06T11:47:19;17.50;36.00
31038;DHT22;17702;47.590;7.666;2023-04-06T11:49:45;17.40;36.00
31038;DHT22;17702;47.590;7.666;2023-04-06T11:54:44;17.40;35.10
31038;DHT22;17702;47.590;7.666;2023-04-06T11:57:10;17.20;34.20
31038;DHT22;17702;47.590;7.666;2023-04-06T11:59:35;17.10;35.50
31038;DHT22;17702;47.590;7.666;2023-04-06T12:02:01;17.00;34.50
31038;DHT22;17702;47.590;7.666;2023-04-06T12:04:27;17.00;35.10
31038;DHT22;17702;47.590;7.666;2023-04-06T12:06:52;17.00;35.70
31038;DHT22;17702;47.590;7.666;2023-04-06T12:09:18;17.00;36.30
31038;DHT22;17702;47.590;7.666;2023-04-06T12:11:43;17.00;36.90
31038;DHT22;17702;47.590;7.666;2023-04-06T12:14:09;17.00;36.80
31038;DHT22;17702;47.590;7.666;2023-04-06T12:16:35;17.00;34.70
31038;DHT22;17702;47.590;7.666;2023-04-06T12:19:00;16.90;34.80
31038;DHT22;17702;47.590;7.666;2023-04-06T12:21:26;16.80;34.60
31038;DHT22;17702;47.590;7.666;2023-04-06T12:23:52;16.90;34.20
31038;DHT22;17702;47.590;7.666;2023-04-06T12:26:18;16.90;33.30
31038;DHT22;17702;47.590;7.666;2023-04-06T12:28:43;16.80;34.70
31038;DHT22;17702;47.590;7.666;2023-04-06T12:31:19;16.70;37.10
31038;DHT22;17702;47.590;7.666;2023-04-06T12:33:48;16.70;34.10
31038;DHT22;17702;47.590;7.666;2023-04-06T12:36:15;16.50;35.20
31038;DHT22;17702;47.590;7.666;2023-04-06T12:38:47;16.50;35.40
31038;DHT22;17702;47.590;7.666;2023-04-06T12:41:12;16.60;36.10
31038;DHT22;17702;47.590;7.666;2023-04-06T12:43:41;16.60;36.30
31038;DHT22;17702;47.590;7.666;2023-04-06T12:46:07;16.80;36.70
31038;DHT22;17702;47.590;7.666;2023-04-06T12:48:32;16.90;34.50
31038;DHT22;17702;47.590;7.666;2023-04-06T12:50:59;17.00;35.70
31038;DHT22;17702;47.590;7.666;2023-04-06T12:53:26;17.10;35.60
31038;DHT22;17702;47.590;7.666;2023-04-06T12:55:53;17.10;35.10
31038;DHT22;17702;47.590;7.666;2023-04-06T12:58:18;17.20;35.30
31038;DHT22;17702;47.590;7.666;2023-04-06T13:00:44;17.30;36.20
31038;DHT22;17702;47.590;7.666;2023-04-06T13:03:10;17.30;32.60
31038;DHT22;17702;47.590;7.666;2023-04-06T13:05:36;17.30;34.10
31038;DHT22;17702;47.590;7.666;2023-04-06T13:08:01;17.20;35.20
31038;DHT22;17702;47.590;7.666;2023-04-06T13:10:27;17.20;34.90
31038;DHT22;17702;47.590;7.666;2023-04-06T13:12:53;17.20;34.70
31038;DHT22;17702;47.590;7.666;2023-04-06T13:15:18;17.10;33.70
31038;DHT22;17702;47.590;7.666;2023-04-06T13:17:44;17.10;35.00
31038;DHT22;17702;47.590;7.666;2023-04-06T13:20:09;17.10;36.50
31038;DHT22;17702;47.590;7.666;2023-04-06T13:22:35;17.00;35.40
31038;DHT22;17702;47.590;7.666;2023-04-06T13:25:01;16.90;35.30
31038;DHT22;17702;47.590;7.666;2023-04-06T13:27:26;16.90;35.80
31038;DHT22;17702;47.590;7.666;2023-04-06T13:29:53;16.80;34.40
31038;DHT22;17702;47.590;7.666;2023-04-06T13:32:18;16.70;35.70
31038;DHT22;17702;47.590;7.666;2023-04-06T13:34:43;16.60;34.80
31038;DHT22;17702;47.590;7.666;2023-04-06T13:37:11;16.40;35.90
31038;DHT22;17702;47.590;7.666;2023-04-06T13:39:37;16.40;37.40
31038;DHT22;17702;47.590;7.666;2023-04-06T13:42:03;16.40;36.30
31038;DHT22;17702;47.590;7.666;2023-04-06T13:44:28;16.40;36.10
31038;DHT22;17702;47.590;7.666;2023-04-06T13:46:54;16.30;36.10
31038;DHT22;17702;47.590;7.666;2023-04-06T13:49:19;16.20;36.40
31038;DHT22;17702;47.590;7.666;2023-04-06T13:51:45;16.20;37.40
31038;DHT22;17702;47.590;7.666;2023-04-06T13:54:10;16.20;35.50
31038;DHT22;17702;47.590;7.666;2023-04-06T13:56:36;16.20;36.30
31038;DHT22;17702;47.590;7.666;2023-04-06T13:59:02;16.20;37.70
31038;DHT22;17702;47.590;7.666;2023-04-06T14:01:28;16.20;36.90
31038;DHT22;17702;47.590;7.666;2023-04-06T14:03:53;16.20;37.40
31038;DHT22;17702;47.590;7.666;2023-04-06T14:06:19;16.20;37.20
31038;DHT22;17702;47.590;7.666;2023-04-06T14:08:45;16.20;37.90
31038;DHT22;17702;47.590;7.666;2023-04-06T14:11:11;16.20;38.60
31038;DHT22;17702;47.590;7.666;2023-04-06T14:13:37;16.20;38.10
31038;DHT22;17702;47.590;7.666;2023-04-06T14:16:03;16.20;38.60
31038;DHT22;17702;47.590;7.666;2023-04-06T14:18:29;16.20;38.40
31038;DHT22;17702;47.590;7.666;2023-04-06T14:20:56;16.20;38.20
31038;DHT22;17702;47.590;7.666;2023-04-06T14:23:22;16.20;38.20
31038;DHT22;17702;47.590;7.666;2023-04-06T14:25:48;16.20;38.40
31038;DHT22;17702;47.590;7.666;2023-04-06T14:28:13;16.20;37.40
31038;DHT22;17702;47.590;7.666;2023-04-06T14:30:39;16.20;37.80
31038;DHT22;17702;47.590;7.666;2023-04-06T14:33:05;16.20;38.80
31038;DHT22;17702;47.590;7.666;2023-04-06T14:35:31;16.20;37.00
31038;DHT22;17702;47.590;7.666;2023-04-06T14:37:57;16.20;37.50
31038;DHT22;17702;47.590;7.666;2023-04-06T14:40:23;16.20;38.80
31038;DHT22;17702;47.590;7.666;2023-04-06T14:42:49;16.20;38.20
31038;DHT22;17702;47.590;7.666;2023-04-06T14:45:16;16.20;38.70
31038;DHT22;17702;47.590;7.666;2023-04-06T14:47:44;16.20;38.60
31038;DHT22;17702;47.590;7.666;2023-04-06T14:50:10;16.20;39.10
31038;DHT22;17702;47.590;7.666;2023-04-06T14:52:36;16.20;38.40
31038;DHT22;17702;47.590;7.666;2023-04-06T14:55:01;16.10;38.80
31038;DHT22;17702;47.590;7.666;2023-04-06T14:57:27;16.10;37.60
31038;DHT22;17702;47.590;7.666;2023-04-06T14:59:53;16.00;37.10
31038;DHT22;17702;47.590;7.666;2023-04-06T15:02:18;15.90;38.80
31038;DHT22;17702;47.590;7.666;2023-04-06T15:04:44;15.90;38.60
31038;DHT22;17702;47.590;7.666;2023-04-06T15:07:09;15.90;38.10
31038;DHT22;17702;47.590;7.666;2023-04-06T15:09:36;15.90;38.30
31038;DHT22;17702;47.590;7.666;2023-04-06T15:12:02;15.80;38.70
31038;DHT22;17702;47.590;7.666;2023-04-06T15:14:27;15.90;38.80
31038;DHT22;17702;47.590;7.666;2023-04-06T15:16:53;15.90;36.80
31038;DHT22;17702;47.590;7.666;2023-04-06T15:19:18;15.80;37.90
31038;DHT22;17702;47.590;7.666;2023-04-06T15:21:44;15.80;39.00
31038;DHT22;17702;47.590;7.666;2023-04-06T15:24:09;15.80;39.00
31038;DHT22;17702;47.590;7.666;2023-04-06T15:26:35;15.80;36.70
31038;DHT22;17702;47.590;7.666;2023-04-06T15:29:02;15.70;36.60
31038;DHT22;17702;47.590;7.666;2023-04-06T15:31:28;15.70;37.60
31038;DHT22;17702;47.590;7.666;2023-04-06T15:33:54;15.60;37.60
31038;DHT22;17702;47.590;7.666;2023-04-06T15:36:26;15.60;38.60
31038;DHT22;17702;47.590;7.666;2023-04-06T15:38:54;15.50;39.10
31038;DHT22;17702;47.590;7.666;2023-04-06T15:41:20;15.50;39.30